Time;durP1;ratioP1;P1;durP2;ratioP2;P2;SDS_P1;SDS_P2;PMS_P1;PMS_P2;Temp;Humidity;BMP_temperature;BMP_pressure;BME280_temperature;BME280_humidity;BME280_pressure;Samples;Min_cycle;Max_cycle;Signal;HPM_P1;HPM_P2
2024/01/05 00:00:15;;;;;;;9.95;9.05;;;;;;;0.51;100.00;100664.00;12510887;23;20068;-71
2024/01/05 00:05:12;;;;;;;12.50;10.15;;;;;;;0.41;100.00;100666.56;12510869;23;20032;-70
2024/01/05 00:10:08;;;;;;;15.52;9.52;;;;;;;0.40;100.00;100664.94;12510227;23;20105;-71
2024/01/05 00:15:05;;;;;;;11.05;9.93;;;;;;;0.29;100.00;100655.94;12509494;23;20021;-71
2024/01/05 00:20:02;;;;;;;10.98;9.88;;;;;;;0.28;100.00;100648.09;12509577;23;20025;-70
2024/01/05 00:24:59;;;;;;;16.10;10.27;;;;;;;0.39;100.00;100649.84;12505890;23;20029;-71
2024/01/05 00:29:56;;;;;;;12.57;10.52;;;;;;;0.45;100.00;100640.78;12509027;23;20025;-70
2024/01/05 00:34:53;;;;;;;12.23;9.23;;;;;;;0.33;100.00;100630.16;12509635;23;20175;-71
2024/01/05 00:39:49;;;;;;;10.65;9.55;;;;;;;0.38;100.00;100610.59;12509067;23;20025;-71
2024/01/05 00:44:46;;;;;;;12.00;9.63;;;;;;;0.33;100.00;100613.22;12509872;23;20036;-71
2024/01/05 00:49:42;;;;;;;11.15;9.93;;;;;;;0.10;100.00;100609.72;12481945;23;20029;-71
2024/01/05 00:54:39;;;;;;;11.85;9.23;;;;;;;0.45;100.00;100605.81;12507084;23;20467;-71
2024/01/05 00:59:36;;;;;;;9.98;9.00;;;;;;;0.47;100.00;100598.31;12509443;23;20057;-71
2024/01/05 01:04:35;;;;;;;10.15;9.02;;;;;;;0.54;100.00;100598.13;12563872;23;20354;-70
2024/01/05 01:09:40;;;;;;;9.85;8.80;;;;;;;0.47;100.00;100603.69;12629981;23;20366;-70
2024/01/05 01:14:37;;;;;;;9.90;8.85;;;;;;;0.37;100.00;100603.56;12587564;23;20104;-71
2024/01/05 01:19:33;;;;;;;11.85;9.50;;;;;;;0.34;100.00;100610.25;12507617;23;20025;-71
2024/01/05 01:24:30;;;;;;;10.52;9.43;;;;;;;0.47;100.00;100608.25;12509437;23;20025;-70
2024/01/05 01:29:26;;;;;;;11.50;9.65;;;;;;;0.47;100.00;100611.75;12503526;23;20499;-70
2024/01/05 01:34:23;;;;;;;10.52;9.43;;;;;;;0.44;100.00;100603.38;12508787;23;20081;-71
2024/01/05 01:39:20;;;;;;;10.13;8.88;;;;;;;0.45;100.00;100595.06;12509560;23;20055;-70
2024/01/05 01:44:17;;;;;;;11.98;9.48;;;;;;;0.35;100.00;100578.81;12510380;23;20030;-70
2024/01/05 01:49:13;;;;;;;10.05;8.70;;;;;;;0.29;100.00;100585.22;12564204;23;20028;-70
2024/01/05 01:54:10;;;;;;;10.93;9.63;;;;;;;0.27;100.00;100577.38;12521898;23;20029;-70
2024/01/05 01:59:07;;;;;;;11.10;9.23;;;;;;;-146.18;100.00;67994.34;12511308;23;20036;-70
2024/01/05 02:04:04;;;;;;;12.00;9.27;;;;;;;-146.18;100.00;67994.34;12512598;23;20026;-71
2024/01/05 02:09:00;;;;;;;11.75;9.20;;;;;;;-146.18;100.00;67994.34;12510602;23;20026;-71
2024/01/05 02:13:57;;;;;;;10.98;9.77;;;;;;;0.38;100.00;100562.19;12510394;23;20464;-70
2024/01/05 02:18:55;;;;;;;10.00;9.00;;;;;;;0.38;100.00;100559.47;12511447;23;20521;-70
2024/01/05 02:23:52;;;;;;;10.13;9.18;;;;;;;0.49;100.00;100552.31;12510698;23;20021;-70
2024/01/05 02:28:49;;;;;;;12.68;9.95;;;;;;;0.46;100.00;100553.63;12506067;23;20025;-71
2024/01/05 02:33:45;;;;;;;15.57;10.27;;;;;;;0.40;100.00;100533.16;12505641;23;20076;-71
2024/01/05 02:38:42;;;;;;;11.52;10.32;;;;;;;0.36;100.00;100532.03;12511536;23;20412;-70
2024/01/05 02:43:39;;;;;;;11.43;10.27;;;;;;;0.11;100.00;100533.38;12484462;23;20026;-70
2024/01/05 02:48:35;;;;;;;18.60;11.05;;;;;;;0.42;100.00;100520.25;12511821;23;20080;-69
2024/01/05 02:53:32;;;;;;;11.77;9.80;;;;;;;0.53;100.00;100513.88;12510798;23;20021;-71
2024/01/05 02:58:28;;;;;;;15.30;9.90;;;;;;;0.25;100.00;100500.72;12508774;23;20069;-69
2024/01/05 03:03:25;;;;;;;14.73;11.45;;;;;;;0.48;100.00;100500.38;12510485;23;20033;-69
2024/01/05 03:08:21;;;;;;;12.45;11.15;;;;;;;0.27;100.00;100496.69;12512987;23;20029;-69
2024/01/05 03:13:18;;;;;;;17.77;11.02;;;;;;;0.32;100.00;100494.06;12512711;23;20021;-70
2024/01/05 03:18:14;;;;;;;13.63;10.70;;;;;;;0.16;100.00;100477.00;12513917;23;20088;-70
2024/01/05 03:23:11;;;;;;;16.00;11.25;;;;;;;0.15;100.00;100471.84;12512737;23;20411;-70
2024/01/05 03:28:10;;;;;;;13.48;12.07;;;;;;;0.22;100.00;100460.91;12511244;23;20028;-71
2024/01/05 03:33:06;;;;;;;13.13;11.38;;;;;;;0.31;100.00;100451.31;12511541;23;20021;-71
2024/01/05 03:38:04;;;;;;;14.10;11.98;;;;;;;0.37;100.00;100450.25;12502229;23;20412;-71
2024/01/05 03:43:00;;;;;;;14.48;11.70;;;;;;;0.39;100.00;100440.06;12512679;23;20022;-71
2024/01/05 03:47:57;;;;;;;15.48;11.82;;;;;;;0.39;100.00;100432.78;12512840;23;20367;-71
2024/01/05 03:52:53;;;;;;;10.70;9.60;;;;;;;0.20;100.00;100429.69;12513338;23;20472;-71
2024/01/05 03:57:50;;;;;;;16.50;11.02;;;;;;;0.27;100.00;100423.28;12513192;23;20530;-70
2024/01/05 04:02:46;;;;;;;13.00;10.52;;;;;;;0.30;100.00;100420.91;12512647;23;20026;-70
2024/01/05 04:07:43;;;;;;;11.45;10.23;;;;;;;0.43;100.00;100413.47;12512427;23;20093;-71
2024/01/05 04:12:39;;;;;;;14.63;11.60;;;;;;;0.34;100.00;100405.06;12545725;23;20021;-70
2024/01/05 04:17:36;;;;;;;13.43;10.98;;;;;;;0.35;100.00;100401.31;12542503;23;20026;-70
2024/01/05 04:22:32;;;;;;;12.57;10.88;;;;;;;0.24;100.00;100394.25;12511422;23;20647;-70
2024/01/05 04:27:29;;;;;;;20.42;11.38;;;;;;;0.28;100.00;100384.56;12512941;23;20084;-70
2024/01/05 04:32:26;;;;;;;15.82;11.75;;;;;;;0.32;100.00;100375.72;12512830;23;20041;-70
2024/01/05 04:37:22;;;;;;;14.57;10.63;;;;;;;0.25;100.00;100374.34;12513620;23;20032;-70
2024/01/05 04:42:18;;;;;;;14.98;12.07;;;;;;;0.15;100.00;100367.81;12507469;23;20025;-71
2024/01/05 04:47:16;;;;;;;13.05;11.65;;;;;;;0.03;100.00;100367.19;12486720;23;20476;-70
2024/01/05 04:52:12;;;;;;;18.08;13.50;;;;;;;-0.17;100.00;100348.19;12513042;23;20037;-70
2024/01/05 04:57:09;;;;;;;14.88;12.88;;;;;;;-146.18;100.00;67994.34;12507563;23;20030;-69
2024/01/05 05:02:05;;;;;;;16.45;12.80;;;;;;;0.07;100.00;86187.22;12510894;23;20495;-69
2024/01/05 05:07:02;;;;;;;14.73;13.32;;;;;;;0.07;100.00;86187.56;12512655;23;20028;-70
2024/01/05 05:12:44;;;;;;;15.38;13.63;;;;;;;-146.18;100.00;67994.34;12510024;23;20036;-70
2024/01/05 05:18:01;;;;;;;14.32;12.95;;;;;;;-146.18;100.00;67994.34;12492243;23;20025;-71
2024/01/05 05:28:09;;;;;;;14.57;12.90;;;;;;;-146.18;100.00;67994.34;12521301;23;20033;-71
2024/01/05 05:33:05;;;;;;;14.55;13.35;;;;;;;-0.03;100.00;100315.25;12574362;23;20479;-74
2024/01/05 05:38:03;;;;;;;15.05;13.50;;;;;;;-0.11;100.00;100313.03;12581366;23;20104;-74
2024/01/05 05:43:00;;;;;;;14.75;13.32;;;;;;;-0.05;100.00;100316.56;12581277;23;20025;-73
2024/01/05 05:48:15;;;;;;;13.88;12.57;;;;;;;0.04;100.00;100303.47;12578879;23;20039;-78
2024/01/05 05:53:16;;;;;;;15.77;13.68;;;;;;;0.10;100.00;100303.25;12548407;23;20337;-73
2024/01/05 05:58:14;;;;;;;15.27;13.68;;;;;;;0.16;100.00;100304.91;12514366;23;20367;-74
2024/01/05 06:03:14;;;;;;;15.02;13.55;;;;;;;0.04;100.00;100287.34;12450338;23;20029;-73
2024/01/05 06:09:04;;;;;;;;;;;;;;;;;;;;;
2024/01/05 06:14:25;;;;;;;14.17;12.97;;;;;;;-0.01;100.00;100286.22;12516685;23;20025;-74
2024/01/05 06:19:22;;;;;;;14.68;13.23;;;;;;;0.05;100.00;100295.16;12508050;23;20036;-74
2024/01/05 06:24:19;;;;;;;14.80;13.57;;;;;;;-0.08;100.00;100290.22;12512304;23;20024;-75
2024/01/05 06:29:15;;;;;;;14.50;13.27;;;;;;;0.08;100.00;100277.69;12456521;23;20030;-75
2024/01/05 06:34:12;;;;;;;15.02;13.75;;;;;;;0.03;100.00;100285.72;12486604;23;20018;-74
2024/01/05 06:39:08;;;;;;;14.68;13.38;;;;;;;0.01;100.00;100288.66;12447889;23;20093;-74
2024/01/05 07:07:33;;;;;;;;;;;;;;;;;;;;;
2024/01/05 07:13:41;;;;;;;15.13;13.82;;;;;;;-0.19;100.00;100275.06;12394413;23;20034;-74
2024/01/05 07:37:39;;;;;;;;;;;;;;;;;;;;;
2024/01/05 07:43:40;;;;;;;14.60;13.10;;;;;;;-0.25;100.00;100261.59;12184168;23;20099;-75
2024/01/05 07:50:49;;;;;;;14.10;12.98;;;;;;;-0.33;100.00;100240.56;12387339;23;20037;-75
2024/01/05 07:55:50;;;;;;;14.32;13.05;;;;;;;-0.19;100.00;100237.47;12124224;23;21041;-75
2024/01/05 08:14:57;;;;;;;;;;;;;;;;;;;;;
2024/01/05 08:20:12;;;;;;;14.68;13.20;;;;;;;-0.40;100.00;100233.81;12163379;23;20019;-72
2024/01/05 08:25:09;;;;;;;14.85;13.27;;;;;;;-0.36;100.00;100234.94;12323689;23;20353;-75
2024/01/05 08:30:07;;;;;;;13.57;12.38;;;;;;;-0.32;100.00;100230.66;12391944;23;20524;-75
2024/01/05 08:35:06;;;;;;;15.23;13.90;;;;;;;-0.32;100.00;100234.16;12392688;23;20026;-75
2024/01/05 08:40:03;;;;;;;13.68;12.48;;;;;;;-0.28;100.00;100237.94;12392161;23;20022;-75
2024/01/05 08:44:59;;;;;;;13.73;12.52;;;;;;;-0.37;100.00;100244.88;12390756;23;20022;-75
2024/01/05 08:49:56;;;;;;;14.60;13.40;;;;;;;-0.32;100.00;100236.84;12391974;23;20027;-75
2024/01/05 09:02:36;;;;;;;;;;;;;;;;;;;;;
2024/01/05 09:21:12;;;;;;;12.38;11.45;;;;;;;-0.24;100.00;100249.78;11899240;23;20022;-75
2024/01/05 09:26:47;;;;;;;;;;;;;;;;;;;;;
2024/01/05 09:44:52;;;;;;;11.50;10.60;;;;;;;-0.26;100.00;100251.91;12285757;23;20031;-74
2024/01/05 09:50:41;;;;;;;;;;;;;;;;;;;;;
2024/01/05 09:57:21;;;;;;;;;;;;;;;;;;;;;
2024/01/05 10:03:41;;;;;;;10.77;9.90;;;;;;;-0.64;100.00;100285.97;11938081;24;20029;-75
2024/01/05 10:34:27;;;;;;;;;;;;;;;;;;;;;
2024/01/05 10:39:56;;;;;;;;;;;;;;;;;;;;;
2024/01/05 10:52:14;;;;;;;11.23;10.32;;;;;;;-0.26;100.00;100262.66;12033663;24;20017;-74
2024/01/05 10:57:12;;;;;;;11.15;10.40;;;;;;;-0.27;100.00;100261.06;12129747;23;20031;-74
2024/01/05 11:02:24;;;;;;;11.15;10.15;;;;;;;-0.43;100.00;100240.50;12208848;23;20030;-74
2024/01/05 11:07:23;;;;;;;12.02;10.65;;;;;;;-0.36;100.00;100234.94;12213057;23;20039;-74
2024/01/05 11:13:00;;;;;;;12.93;11.93;;;;;;;-0.18;100.00;100229.16;12210124;23;20347;-74
2024/01/05 11:18:15;;;;;;;11.10;10.20;;;;;;;-0.25;100.00;100221.31;12212701;23;20031;-74
2024/01/05 11:23:14;;;;;;;10.85;9.95;;;;;;;-0.33;100.00;100219.09;12376403;23;20101;-74
2024/01/05 11:28:36;;;;;;;11.13;10.32;;;;;;;-0.60;100.00;100212.97;12393694;23;20061;-74
2024/01/05 11:33:49;;;;;;;10.70;9.90;;;;;;;-0.65;100.00;100217.25;12393807;23;20365;-74
2024/01/05 11:38:47;;;;;;;11.20;10.40;;;;;;;-0.49;100.00;100215.50;12392812;23;20061;-73
2024/01/05 11:43:43;;;;;;;12.18;11.18;;;;;;;-0.53;100.00;100197.47;12368365;23;20364;-75
2024/01/05 11:48:44;;;;;;;12.07;10.98;;;;;;;-0.61;100.00;100197.94;12360636;23;20027;-75
2024/01/05 11:53:43;;;;;;;12.50;11.40;;;;;;;-0.50;100.00;100191.56;12383958;23;20081;-75
2024/01/05 11:58:42;;;;;;;12.27;11.18;;;;;;;-0.44;100.00;100179.81;12388995;23;20369;-75
2024/01/05 12:03:40;;;;;;;12.35;11.32;;;;;;;-0.57;100.00;100166.81;12391119;23;20038;-73
2024/01/05 12:08:39;;;;;;;11.20;10.40;;;;;;;-0.59;100.00;100166.25;12391164;23;20097;-75
2024/01/05 12:13:38;;;;;;;12.18;11.07;;;;;;;-0.40;100.00;100170.16;12389707;23;20030;-75
2024/01/05 12:18:46;;;;;;;12.00;11.10;;;;;;;-0.52;100.00;100166.84;12393031;23;20078;-75
2024/01/05 12:23:54;;;;;;;11.23;10.52;;;;;;;-0.50;100.00;100159.34;12368182;23;20070;-75
2024/01/05 12:28:53;;;;;;;12.45;11.55;;;;;;;-0.49;100.00;100155.59;12391583;23;20030;-75
2024/01/05 12:33:51;;;;;;;12.18;11.23;;;;;;;-0.66;100.00;100145.00;12392718;23;20505;-75
2024/01/05 12:38:47;;;;;;;11.55;10.55;;;;;;;-0.57;100.00;100142.66;12392498;23;20529;-73
2024/01/05 12:43:47;;;;;;;12.45;11.45;;;;;;;-0.67;100.00;100144.19;12392545;23;20022;-76
2024/01/05 12:48:43;;;;;;;12.27;11.13;;;;;;;-0.57;100.00;100148.03;12390457;23;20514;-75
2024/01/05 12:53:40;;;;;;;11.93;11.13;;;;;;;-0.43;100.00;100144.63;12385414;23;20029;-73
2024/01/05 12:58:41;;;;;;;11.88;11.07;;;;;;;-0.57;100.00;100164.94;12391441;23;20033;-76
2024/01/05 13:04:35;;;;;;;12.68;11.88;;;;;;;-0.29;100.00;100155.72;12387761;23;20086;-75
2024/01/05 13:10:14;;;;;;;12.80;11.88;;;;;;;-0.57;100.00;100164.94;12349606;23;20030;-75
2024/01/05 13:21:11;;;;;;;13.70;12.70;;;;;;;-0.42;100.00;100140.03;12362605;23;20033;-74
2024/01/05 13:26:19;;;;;;;14.25;13.25;;;;;;;-0.34;100.00;100144.94;12361575;23;20043;-75
2024/01/05 13:31:17;;;;;;;13.95;13.00;;;;;;;-0.32;100.00;100160.81;12355486;23;20026;-75
2024/01/05 13:36:24;;;;;;;12.80;12.00;;;;;;;-0.33;100.00;100159.97;12361070;23;20034;-75
2024/01/05 13:41:21;;;;;;;12.65;11.77;;;;;;;-0.56;100.00;100160.38;12358691;23;20033;-75
2024/01/05 13:46:23;;;;;;;12.85;11.95;;;;;;;-0.49;100.00;100159.09;12369034;23;20029;-75
2024/01/05 14:03:58;;;;;;;12.60;11.70;;;;;;;-0.82;100.00;100162.84;12174427;23;20036;-76
2024/01/05 14:09:08;;;;;;;14.65;13.75;;;;;;;-0.56;100.00;100166.53;12342362;23;20545;-76
2024/01/05 14:14:06;;;;;;;13.70;12.70;;;;;;;-0.63;100.00;100155.22;12394573;23;20030;-74
2024/01/05 14:19:08;;;;;;;13.20;12.30;;;;;;;-0.54;100.00;100153.66;12393357;23;20030;-75
2024/01/05 14:24:11;;;;;;;13.82;12.80;;;;;;;-0.51;100.00;100155.03;12393687;23;20030;-76
2024/01/05 14:29:18;;;;;;;13.45;12.52;;;;;;;-0.47;100.00;100142.69;12393472;23;20037;-74
2024/01/05 14:34:21;;;;;;;14.02;12.98;;;;;;;-0.58;100.00;100146.38;12391740;23;20033;-74
2024/01/05 14:39:18;;;;;;;13.50;12.43;;;;;;;-0.58;100.00;100146.38;12390018;23;20027;-75
2024/01/05 14:44:20;;;;;;;13.63;12.70;;;;;;;-0.65;100.00;100152.81;12395381;23;20034;-76
2024/01/05 14:49:19;;;;;;;12.88;12.07;;;;;;;-0.84;100.00;100151.56;12385844;23;20026;-75
2024/01/05 14:54:17;;;;;;;13.63;12.63;;;;;;;-0.83;100.00;100139.78;12393312;23;20070;-74
2024/01/05 14:59:13;;;;;;;13.90;12.73;;;;;;;-0.76;100.00;100151.09;12390751;23;20030;-74
2024/01/05 15:04:10;;;;;;;13.23;12.32;;;;;;;-0.72;100.00;100146.84;12391276;23;20030;-75
2024/01/05 15:09:07;;;;;;;13.65;12.43;;;;;;;-0.74;100.00;100134.72;12392393;23;20030;-74
2024/01/05 15:14:04;;;;;;;13.70;12.63;;;;;;;-0.63;100.00;100139.09;12359728;23;20034;-73
2024/01/05 15:19:02;;;;;;;13.75;12.82;;;;;;;-0.55;100.00;100140.53;12391254;23;20421;-75
2024/01/05 15:23:59;;;;;;;13.35;12.35;;;;;;;-0.69;100.00;100151.69;12392461;23;20026;-73
2024/01/05 15:29:01;;;;;;;13.88;12.98;;;;;;;-0.75;100.00;100158.06;12392334;23;20180;-74
2024/01/05 15:34:00;;;;;;;13.88;12.93;;;;;;;-0.60;100.00;100159.25;12394271;23;20500;-75
2024/01/05 15:38:58;;;;;;;14.75;13.65;;;;;;;-0.58;100.00;100157.13;12391194;23;20053;-75
2024/01/05 15:43:55;;;;;;;13.07;12.27;;;;;;;-0.68;100.00;100164.03;12393450;23;20046;-76
2024/01/05 15:48:53;;;;;;;13.88;12.88;;;;;;;-0.76;100.00;100172.56;12393015;23;20037;-75
2024/01/05 15:53:51;;;;;;;13.93;12.93;;;;;;;-0.74;100.00;100175.81;12304352;23;20049;-74
2024/01/05 15:58:48;;;;;;;13.35;12.45;;;;;;;-0.85;100.00;100174.09;12334328;23;20555;-72
2024/01/05 16:03:47;;;;;;;14.05;13.05;;;;;;;-0.90;100.00;100187.50;12333742;23;20019;-74
2024/01/05 16:08:44;;;;;;;14.07;12.98;;;;;;;-0.86;100.00;100188.56;12339378;23;20050;-74
2024/01/05 16:13:41;;;;;;;13.43;12.48;;;;;;;-0.84;100.00;100213.28;12329688;23;20102;-74
2024/01/05 16:18:43;;;;;;;13.82;12.93;;;;;;;-0.98;100.00;100212.09;12319067;23;20030;-74
2024/01/05 16:23:40;;;;;;;14.60;13.38;;;;;;;-0.97;100.00;100209.16;12326385;23;20033;-74
2024/01/05 16:28:37;;;;;;;14.35;13.35;;;;;;;-0.89;100.00;100207.88;12302730;23;20031;-73
2024/01/05 16:33:44;;;;;;;14.57;13.48;;;;;;;-0.96;100.00;100216.13;12330124;23;20027;-73
2024/01/05 16:38:41;;;;;;;14.82;13.80;;;;;;;-0.84;100.00;100205.25;12336273;23;20083;-73
2024/01/05 16:43:41;;;;;;;16.00;14.50;;;;;;;-0.90;100.00;100214.31;12328974;23;20023;-73
2024/01/05 16:48:38;;;;;;;15.80;14.70;;;;;;;-0.77;100.00;100205.84;12329242;23;20031;-74
2024/01/05 16:59:39;;;;;;;;;;;;;;;;;;;;;
2024/01/05 17:22:46;;;;;;;15.30;14.30;;;;;;;-0.78;100.00;100211.47;12443750;23;20022;-75
2024/01/05 17:47:23;;;;;;;14.30;13.30;;;;;;;-1.01;100.00;100223.34;12443695;23;20369;-75
2024/01/05 17:52:41;;;;;;;15.68;14.48;;;;;;;-0.88;100.00;100231.00;12404202;23;20022;-75
2024/01/05 17:57:41;;;;;;;15.60;14.50;;;;;;;-0.75;100.00;100232.44;12395585;23;20037;-75
2024/01/05 18:02:37;;;;;;;14.95;13.90;;;;;;;-0.81;100.00;100239.66;12391247;23;20018;-73
2024/01/05 18:07:34;;;;;;;15.35;14.15;;;;;;;-0.83;100.00;100247.13;12383706;23;20627;-74
2024/01/05 18:12:30;;;;;;;16.23;14.88;;;;;;;-0.72;100.00;100248.03;12393007;23;20027;-74
2024/01/05 18:17:27;;;;;;;15.98;14.80;;;;;;;-0.89;100.00;100248.13;12390124;23;20026;-74
2024/01/05 18:22:24;;;;;;;15.63;14.07;;;;;;;-0.89;100.00;100248.13;12390467;23;20031;-74
2024/01/05 18:27:20;;;;;;;16.33;15.02;;;;;;;-0.69;100.00;100250.22;12388193;23;20034;-73
2024/01/05 18:32:17;;;;;;;15.57;14.48;;;;;;;-0.90;100.00;100249.22;12359668;23;20038;-74
2024/01/05 18:37:15;;;;;;;16.20;14.90;;;;;;;-0.80;100.00;100252.00;12391910;23;20030;-75
2024/01/05 18:42:12;;;;;;;15.40;14.30;;;;;;;-0.80;100.00;100254.69;12388122;23;20052;-75
2024/01/05 18:47:09;;;;;;;16.52;15.23;;;;;;;-0.69;100.00;100256.41;12395621;23;20033;-74
2024/01/05 18:52:09;;;;;;;16.08;14.80;;;;;;;-0.92;100.00;100254.03;12371488;23;20109;-75
2024/01/05 18:57:06;;;;;;;15.13;14.02;;;;;;;-0.86;100.00;100258.38;12384987;23;20105;-74
2024/01/05 19:02:03;;;;;;;15.55;14.18;;;;;;;-0.94;100.00;100256.16;12361762;23;20034;-74
2024/01/05 19:07:08;;;;;;;15.70;14.50;;;;;;;-0.95;100.00;100266.09;12355765;23;20346;-74
2024/01/05 19:12:06;;;;;;;16.13;14.77;;;;;;;-0.83;100.00;100257.88;12393379;23;20085;-73
2024/01/05 19:17:05;;;;;;;15.27;14.07;;;;;;;-0.87;100.00;100267.50;12392980;23;20034;-74
2024/01/05 19:22:03;;;;;;;15.50;14.10;;;;;;;-0.98;100.00;100265.75;12364743;23;20658;-74
2024/01/05 19:27:00;;;;;;;16.67;15.23;;;;;;;-1.00;100.00;100262.50;12383397;23;20030;-74
2024/01/05 19:32:14;;;;;;;16.15;14.85;;;;;;;-0.88;100.00;100265.88;12390431;23;20109;-75
2024/01/05 19:38:45;;;;;;;15.98;14.68;;;;;;;-0.85;100.00;100273.41;12153287;24;20056;-74
2024/01/05 19:43:39;;;;;;;14.90;13.85;;;;;;;-0.70;100.00;100283.50;12117432;23;20050;-75
2024/01/05 19:48:56;;;;;;;16.02;14.73;;;;;;;-0.70;100.00;100272.75;12309938;23;20690;-75
2024/01/05 19:54:42;;;;;;;14.80;13.60;;;;;;;-0.77;100.00;100285.56;12331967;23;20083;-74
2024/01/05 20:00:22;;;;;;;14.60;13.60;;;;;;;-0.75;100.00;100286.94;12275827;23;20026;-74
2024/01/05 20:11:31;;;;;;;17.55;15.70;;;;;;;-0.74;100.00;100285.88;12420049;23;20026;-75
2024/01/05 20:16:31;;;;;;;15.38;14.18;;;;;;;-0.85;100.00;100292.22;12427341;23;20123;-74
2024/01/05 20:21:27;;;;;;;15.32;14.23;;;;;;;-0.79;100.00;100296.59;12452120;23;20097;-74
2024/01/05 20:26:24;;;;;;;15.82;14.20;;;;;;;-0.70;100.00;100289.66;12453999;23;20448;-73
2024/01/05 20:31:22;;;;;;;15.90;14.57;;;;;;;-1.02;100.00;100304.88;12427972;23;20631;-73
2024/01/05 20:36:18;;;;;;;15.23;14.07;;;;;;;-0.77;100.00;100305.16;12426607;23;20356;-73
2024/01/05 20:41:15;;;;;;;15.20;14.00;;;;;;;-0.69;100.00;100318.16;12454613;23;20105;-74
2024/01/05 20:46:13;;;;;;;15.38;14.15;;;;;;;-0.64;100.00;100315.50;12447617;23;20073;-74
2024/01/05 20:51:10;;;;;;;14.70;13.60;;;;;;;-0.60;100.00;100323.06;12450972;23;20048;-75
2024/01/05 20:56:07;;;;;;;14.85;13.68;;;;;;;-0.72;100.00;100326.72;12427083;23;20064;-74
2024/01/05 21:01:04;;;;;;;15.25;14.10;;;;;;;-0.77;100.00;100326.66;12451436;23;20486;-74
2024/01/05 21:06:01;;;;;;;14.82;13.52;;;;;;;-0.92;100.00;100329.19;12450135;23;20424;-74
2024/01/05 21:10:58;;;;;;;14.50;13.35;;;;;;;-0.83;100.00;100322.31;12451576;23;20032;-75
2024/01/05 21:15:55;;;;;;;14.75;13.48;;;;;;;-0.78;100.00;100333.09;12454147;23;20474;-75
2024/01/05 21:20:52;;;;;;;14.98;13.77;;;;;;;-0.92;100.00;100329.19;12435718;23;20018;-74
2024/01/05 21:25:48;;;;;;;15.27;14.00;;;;;;;-0.84;100.00;100320.66;12425827;23;20045;-74
2024/01/05 21:30:46;;;;;;;14.63;13.52;;;;;;;-0.78;100.00;100322.34;12451162;23;20077;-75
2024/01/05 21:35:43;;;;;;;14.63;13.43;;;;;;;-0.89;100.00;100323.28;12450494;23;20033;-74
2024/01/05 21:40:39;;;;;;;14.88;13.63;;;;;;;-0.79;100.00;100331.47;12446600;23;20030;-75
2024/01/05 21:45:36;;;;;;;14.93;13.73;;;;;;;-0.80;100.00;100337.09;12447144;23;20026;-75
2024/01/05 21:50:33;;;;;;;14.77;13.38;;;;;;;-0.79;100.00;100339.53;12450651;23;20022;-75
2024/01/05 21:55:29;;;;;;;14.23;13.07;;;;;;;-0.87;100.00;100338.09;12446830;23;20659;-74
2024/01/05 22:00:27;;;;;;;14.75;13.52;;;;;;;-0.91;100.00;100346.88;12448574;23;20127;-70
2024/01/05 22:05:24;;;;;;;14.48;13.20;;;;;;;-0.74;100.00;100346.81;12428503;23;20033;-69
2024/01/05 22:10:20;;;;;;;14.82;13.48;;;;;;;-0.85;100.00;100345.91;12453859;23;20464;-70
2024/01/05 22:15:17;;;;;;;14.20;12.95;;;;;;;-0.81;100.00;100355.06;12454735;23;20407;-70
2024/01/05 22:20:14;;;;;;;14.48;13.13;;;;;;;-0.75;100.00;100362.09;12455737;23;20556;-69
2024/01/05 22:25:11;;;;;;;14.20;12.90;;;;;;;-0.73;100.00;100359.19;12443448;23;20022;-69
2024/01/05 22:30:08;;;;;;;14.10;12.85;;;;;;;-0.81;100.00;100368.50;12454571;23;20025;-69
2024/01/05 22:35:05;;;;;;;14.07;12.88;;;;;;;-0.77;100.00;100364.22;12453907;23;20018;-69
2024/01/05 22:40:01;;;;;;;14.93;13.57;;;;;;;-0.80;100.00;100370.09;12453060;23;20022;-68
2024/01/05 22:44:59;;;;;;;14.27;12.82;;;;;;;-0.90;100.00;100381.53;12453431;23;20029;-69
2024/01/05 22:49:55;;;;;;;14.43;13.23;;;;;;;-0.79;100.00;100379.81;12452513;23;20030;-69
2024/01/05 22:54:52;;;;;;;14.48;13.07;;;;;;;-0.75;100.00;100383.59;12428552;23;20033;-69
2024/01/05 22:59:52;;;;;;;13.90;12.68;;;;;;;-0.68;100.00;100378.84;12453922;23;20030;-70
2024/01/05 23:04:49;;;;;;;13.73;12.63;;;;;;;-0.78;100.00;100384.09;12448323;23;20026;-70
2024/01/05 23:09:45;;;;;;;14.13;12.93;;;;;;;-0.80;100.00;100383.53;12453499;23;20026;-72
2024/01/05 23:15:36;;;;;;;14.65;13.23;;;;;;;-0.78;100.00;100410.13;12418373;23;20369;-72
2024/01/05 23:21:27;;;;;;;13.52;12.48;;;;;;;-0.93;100.00;100425.00;12142035;23;20140;-70
2024/01/05 23:27:01;;;;;;;14.32;12.95;;;;;;;-0.95;100.00;100420.91;12359625;23;20481;-71
2024/01/05 23:31:58;;;;;;;14.13;12.93;;;;;;;-0.86;100.00;100420.25;12393238;23;20026;-71
2024/01/05 23:36:54;;;;;;;13.65;12.60;;;;;;;-0.85;100.00;100421.06;12394602;23;20030;-71
2024/01/05 23:41:51;;;;;;;14.02;12.68;;;;;;;-0.73;100.00;100439.72;12394190;23;20430;-71
2024/01/05 23:46:48;;;;;;;14.25;12.68;;;;;;;-0.80;100.00;100434.53;12394495;23;20030;-71
2024/01/05 23:51:44;;;;;;;13.95;12.75;;;;;;;-0.73;100.00;100435.16;12368691;23;20067;-74
2024/01/05 23:56:41;;;;;;;15.23;13.57;;;;;;;-0.65;100.00;100431.22;12394340;23;20062;-71
